sensor_id;sensor_type;location;lat;lon;timestamp;pressure;altitude;pressure_sealevel;temperature;humidity
62942;BME280;49042;47.318;19.874;2023-04-04T00:02:50;100637.72;;;0.88;55.22
62942;BME280;49042;47.318;19.874;2023-04-04T00:05:52;100634.13;;;0.98;54.59
62942;BME280;49042;47.318;19.874;2023-04-04T00:08:53;100636.81;;;1.12;55.04
62942;BME280;49042;47.318;19.874;2023-04-04T00:11:55;100637.72;;;0.88;54.75
62942;BME280;49042;47.318;19.874;2023-04-04T00:14:57;100640.06;;;1.09;54.43
62942;BME280;49042;47.318;19.874;2023-04-04T00:17:58;100641.72;;;1.09;54.82
62942;BME280;49042;47.318;19.874;2023-04-04T00:21:00;100626.72;;;0.79;55.66
62942;BME280;49042;47.318;19.874;2023-04-04T00:24:02;100625.31;;;0.94;55.41
62942;BME280;49042;47.318;19.874;2023-04-04T00:27:04;100607.75;;;0.89;55.23
62942;BME280;49042;47.318;19.874;2023-04-04T00:30:06;100607.75;;;0.64;56.33
62942;BME280;49042;47.318;19.874;2023-04-04T00:33:08;100596.47;;;0.74;56.47
62942;BME280;49042;47.318;19.874;2023-04-04T00:36:10;100614.91;;;0.69;56.92
62942;BME280;49042;47.318;19.874;2023-04-04T00:39:12;100598.16;;;0.86;57.23
62942;BME280;49042;47.318;19.874;2023-04-04T00:42:13;100587.31;;;0.78;56.73
62942;BME280;49042;47.318;19.874;2023-04-04T00:45:15;100585.66;;;0.79;56.72
62942;BME280;49042;47.318;19.874;2023-04-04T00:48:17;100570.47;;;0.82;57.43
62942;BME280;49042;47.318;19.874;2023-04-04T00:51:20;100571.38;;;0.82;57.10
62942;BME280;49042;47.318;19.874;2023-04-04T00:54:22;100569.22;;;0.40;58.05
62942;BME280;49042;47.318;19.874;2023-04-04T00:57:24;100554.84;;;0.55;58.35
62942;BME280;49042;47.318;19.874;2023-04-04T01:00:27;100551.59;;;0.57;57.95
62942;BME280;49042;47.318;19.874;2023-04-04T01:03:29;100547.69;;;0.62;58.00
62942;BME280;49042;47.318;19.874;2023-04-04T01:06:32;100545.34;;;0.41;58.40
62942;BME280;49042;47.318;19.874;2023-04-04T01:09:34;100543.41;;;0.27;58.24
62942;BME280;49042;47.318;19.874;2023-04-04T01:12:36;100528.13;;;0.28;58.77
62942;BME280;49042;47.318;19.874;2023-04-04T01:15:38;100528.16;;;0.40;58.37
62942;BME280;49042;47.318;19.874;2023-04-04T01:18:41;100520.91;;;0.35;58.42
62942;BME280;49042;47.318;19.874;2023-04-04T01:21:44;100519.22;;;0.47;58.24
62942;BME280;49042;47.318;19.874;2023-04-04T01:24:48;100516.78;;;0.25;58.45
62942;BME280;49042;47.318;19.874;2023-04-04T01:27:50;100516.62;;;0.23;59.19
62942;BME280;49042;47.318;19.874;2023-04-04T01:30:51;100510.63;;;0.47;58.55
62942;BME280;49042;47.318;19.874;2023-04-04T01:37:37;100504.19;;;0.52;58.24
62942;BME280;49042;47.318;19.874;2023-04-04T01:40:47;100500.38;;;0.47;57.77
62942;BME280;49042;47.318;19.874;2023-04-04T01:43:49;100490.88;;;0.58;57.69
62942;BME280;49042;47.318;19.874;2023-04-04T01:46:54;100483.06;;;0.68;58.01
62942;BME280;49042;47.318;19.874;2023-04-04T01:49:55;100476.16;;;0.55;57.75
62942;BME280;49042;47.318;19.874;2023-04-04T01:52:57;100474.25;;;0.40;57.25
62942;BME280;49042;47.318;19.874;2023-04-04T01:55:59;100471.03;;;0.55;57.16
62942;BME280;49042;47.318;19.874;2023-04-04T01:59:00;100466.34;;;0.37;57.92
62942;BME280;49042;47.318;19.874;2023-04-04T02:02:02;100470.13;;;0.55;56.81
62942;BME280;49042;47.318;19.874;2023-04-04T02:05:04;100463.44;;;0.45;57.00
62942;BME280;49042;47.318;19.874;2023-04-04T02:08:06;100466.22;;;0.36;56.36
62942;BME280;49042;47.318;19.874;2023-04-04T02:11:08;100461.44;;;0.52;57.04
62942;BME280;49042;47.318;19.874;2023-04-04T02:14:09;100453.16;;;0.57;56.64
62942;BME280;49042;47.318;19.874;2023-04-04T02:17:11;100461.53;;;0.54;56.27
62942;BME280;49042;47.318;19.874;2023-04-04T02:20:13;100461.31;;;0.51;56.13
62942;BME280;49042;47.318;19.874;2023-04-04T02:23:15;100463.78;;;0.49;56.01
62942;BME280;49042;47.318;19.874;2023-04-04T02:26:16;100460.44;;;0.38;55.99
62942;BME280;49042;47.318;19.874;2023-04-04T02:29:18;100465.56;;;0.62;55.88
62942;BME280;49042;47.318;19.874;2023-04-04T02:32:20;100465.13;;;0.56;55.97
62942;BME280;49042;47.318;19.874;2023-04-04T02:35:22;100464.78;;;0.63;55.84
62942;BME280;49042;47.318;19.874;2023-04-04T02:38:24;100468.03;;;0.49;56.07
62942;BME280;49042;47.318;19.874;2023-04-04T02:41:29;100475.47;;;0.70;55.02
62942;BME280;49042;47.318;19.874;2023-04-04T02:44:30;100475.81;;;0.62;55.23
62942;BME280;49042;47.318;19.874;2023-04-04T02:47:32;100471.25;;;0.70;55.18
62942;BME280;49042;47.318;19.874;2023-04-04T02:50:34;100479.03;;;0.84;54.61
62942;BME280;49042;47.318;19.874;2023-04-04T02:56:56;100470.91;;;0.78;54.83
62942;BME280;49042;47.318;19.874;2023-04-04T02:59:58;100476.69;;;0.75;54.85
62942;BME280;49042;47.318;19.874;2023-04-04T03:03:00;100467.87;;;0.71;54.76
62942;BME280;49042;47.318;19.874;2023-04-04T03:06:02;100469.31;;;0.68;54.69
62942;BME280;49042;47.318;19.874;2023-04-04T03:09:03;100470.22;;;0.68;55.42
62942;BME280;49042;47.318;19.874;2023-04-04T03:12:05;100471.34;;;0.72;55.42
62942;BME280;49042;47.318;19.874;2023-04-04T03:15:08;100484.28;;;0.61;55.53
62942;BME280;49042;47.318;19.874;2023-04-04T03:18:09;100480.41;;;0.67;55.68
62942;BME280;49042;47.318;19.874;2023-04-04T03:21:11;100471.25;;;0.70;55.51
62942;BME280;49042;47.318;19.874;2023-04-04T03:24:13;100480.63;;;0.58;55.57
62942;BME280;49042;47.318;19.874;2023-04-04T03:27:15;100481.19;;;0.66;55.59
62942;BME280;49042;47.318;19.874;2023-04-04T03:30:16;100482.41;;;0.47;55.86
62942;BME280;49042;47.318;19.874;2023-04-04T03:33:18;100480.06;;;0.50;55.38
62942;BME280;49042;47.318;19.874;2023-04-04T03:36:20;100479.38;;;0.64;55.24
62942;BME280;49042;47.318;19.874;2023-04-04T03:39:26;100474.37;;;0.54;55.30
62942;BME280;49042;47.318;19.874;2023-04-04T03:42:32;100467.66;;;0.32;55.74
62942;BME280;49042;47.318;19.874;2023-04-04T03:45:34;100459.31;;;0.23;56.27
62942;BME280;49042;47.318;19.874;2023-04-04T03:48:36;100461.19;;;0.25;56.24
62942;BME280;49042;47.318;19.874;2023-04-04T03:51:38;100455.72;;;0.32;55.86
62942;BME280;49042;47.318;19.874;2023-04-04T03:54:39;100458.84;;;0.28;56.50
62942;BME280;49042;47.318;19.874;2023-04-04T03:57:42;100457.75;;;0.37;55.95
62942;BME280;49042;47.318;19.874;2023-04-04T04:00:44;100448.25;;;0.12;56.74
62942;BME280;49042;47.318;19.874;2023-04-04T04:03:45;100462.16;;;-0.09;57.39
62942;BME280;49042;47.318;19.874;2023-04-04T04:06:47;100448.38;;;0.13;56.59
62942;BME280;49042;47.318;19.874;2023-04-04T04:09:49;100447.81;;;0.05;57.71
62942;BME280;49042;47.318;19.874;2023-04-04T04:12:51;100449.38;;;0.03;57.63
62942;BME280;49042;47.318;19.874;2023-04-04T04:15:53;100444.00;;;-0.12;58.56
62942;BME280;49042;47.318;19.874;2023-04-04T04:18:55;100460.28;;;0.01;57.76
62942;BME280;49042;47.318;19.874;2023-04-04T04:21:57;100456.03;;;0.01;57.60
62942;BME280;49042;47.318;19.874;2023-04-04T04:24:58;100448.38;;;0.13;57.00
62942;BME280;49042;47.318;19.874;2023-04-04T04:28:00;100454.75;;;0.30;56.98
62942;BME280;49042;47.318;19.874;2023-04-04T04:31:08;100455.62;;;0.07;57.38
62942;BME280;49042;47.318;19.874;2023-04-04T04:34:11;100456.75;;;0.23;56.63
62942;BME280;49042;47.318;19.874;2023-04-04T04:37:12;100451.28;;;0.30;57.02
62942;BME280;49042;47.318;19.874;2023-04-04T04:40:14;100454.94;;;0.21;56.81
62942;BME280;49042;47.318;19.874;2023-04-04T04:43:16;100457.28;;;0.42;56.61
62942;BME280;49042;47.318;19.874;2023-04-04T04:46:18;100461.34;;;0.39;56.45
62942;BME280;49042;47.318;19.874;2023-04-04T04:49:20;100460.97;;;0.58;56.44
62942;BME280;49042;47.318;19.874;2023-04-04T04:52:22;100468.56;;;0.45;56.33
62942;BME280;49042;47.318;19.874;2023-04-04T04:55:23;100462.94;;;0.87;55.79
62942;BME280;49042;47.318;19.874;2023-04-04T04:58:25;100472.03;;;0.69;55.31
62942;BME280;49042;47.318;19.874;2023-04-04T05:01:29;100473.66;;;0.93;54.59
62942;BME280;49042;47.318;19.874;2023-04-04T05:04:31;100466.81;;;1.05;54.10
62942;BME280;49042;47.318;19.874;2023-04-04T05:07:32;100466.12;;;1.08;53.91
62942;BME280;49042;47.318;19.874;2023-04-04T05:10:34;100472.31;;;1.36;53.77
62942;BME280;49042;47.318;19.874;2023-04-04T05:13:36;100478.75;;;1.43;52.88
62942;BME280;49042;47.318;19.874;2023-04-04T05:16:37;100475.00;;;1.37;52.45
62942;BME280;49042;47.318;19.874;2023-04-04T05:19:39;100473.03;;;1.47;52.00
62942;BME280;49042;47.318;19.874;2023-04-04T05:22:42;100474.19;;;1.90;51.06
62942;BME280;49042;47.318;19.874;2023-04-04T05:25:47;100471.97;;;1.83;51.27
62942;BME280;49042;47.318;19.874;2023-04-04T05:28:49;100472.44;;;2.30;49.70
62942;BME280;49042;47.318;19.874;2023-04-04T05:31:51;100478.16;;;2.80;50.02
62942;BME280;49042;47.318;19.874;2023-04-04T05:34:53;100474.03;;;2.69;50.22
62942;BME280;49042;47.318;19.874;2023-04-04T05:37:54;100463.34;;;2.35;49.35
62942;BME280;49042;47.318;19.874;2023-04-04T05:40:56;100463.03;;;2.44;49.15
62942;BME280;49042;47.318;19.874;2023-04-04T05:43:58;100458.47;;;2.67;48.97
62942;BME280;49042;47.318;19.874;2023-04-04T05:47:00;100464.84;;;3.01;47.12
62942;BME280;49042;47.318;19.874;2023-04-04T05:50:01;100479.50;;;3.16;47.79
62942;BME280;49042;47.318;19.874;2023-04-04T05:53:03;100481.53;;;2.93;48.08
62942;BME280;49042;47.318;19.874;2023-04-04T05:56:05;100482.50;;;2.95;48.22
62942;BME280;49042;47.318;19.874;2023-04-04T05:59:07;100487.25;;;3.45;47.70
62942;BME280;49042;47.318;19.874;2023-04-04T06:02:08;100472.91;;;3.35;47.91
62942;BME280;49042;47.318;19.874;2023-04-04T06:05:10;100452.25;;;3.63;47.69
62942;BME280;49042;47.318;19.874;2023-04-04T06:08:12;100467.03;;;3.37;46.63
62942;BME280;49042;47.318;19.874;2023-04-04T06:11:13;100462.97;;;3.41;47.25
62942;BME280;49042;47.318;19.874;2023-04-04T06:14:15;100461.16;;;3.25;47.47
62942;BME280;49042;47.318;19.874;2023-04-04T06:17:17;100463.84;;;3.41;47.41
62942;BME280;49042;47.318;19.874;2023-04-04T06:20:19;100454.97;;;3.23;47.49
62942;BME280;49042;47.318;19.874;2023-04-04T06:23:23;100440.69;;;3.28;47.57
62942;BME280;49042;47.318;19.874;2023-04-04T06:26:24;100444.78;;;3.68;46.03
62942;BME280;49042;47.318;19.874;2023-04-04T06:29:27;100443.03;;;4.13;45.87
62942;BME280;49042;47.318;19.874;2023-04-04T06:32:30;100442.81;;;4.40;45.92
62942;BME280;49042;47.318;19.874;2023-04-04T06:35:32;100437.81;;;4.75;45.10
62942;BME280;49042;47.318;19.874;2023-04-04T06:38:34;100445.75;;;4.31;45.49
62942;BME280;49042;47.318;19.874;2023-04-04T06:41:35;100460.44;;;4.47;44.79
62942;BME280;49042;47.318;19.874;2023-04-04T06:44:37;100470.34;;;4.71;45.82
62942;BME280;49042;47.318;19.874;2023-04-04T06:47:39;100465.78;;;4.82;45.23
62942;BME280;49042;47.318;19.874;2023-04-04T06:50:40;100466.12;;;6.08;42.46
62942;BME280;49042;47.318;19.874;2023-04-04T06:53:42;100470.22;;;7.33;39.17
62942;BME280;49042;47.318;19.874;2023-04-04T06:56:44;100471.84;;;8.56;37.57
62942;BME280;49042;47.318;19.874;2023-04-04T06:59:45;100478.97;;;8.18;36.25
62942;BME280;49042;47.318;19.874;2023-04-04T07:02:47;100486.66;;;8.57;36.39
62942;BME280;49042;47.318;19.874;2023-04-04T07:05:49;100486.44;;;9.20;36.51
62942;BME280;49042;47.318;19.874;2023-04-04T07:08:51;100477.06;;;8.78;36.68
62942;BME280;49042;47.318;19.874;2023-04-04T07:11:53;100467.25;;;8.94;36.95
62942;BME280;49042;47.318;19.874;2023-04-04T07:14:54;100455.44;;;9.27;33.66
62942;BME280;49042;47.318;19.874;2023-04-04T07:17:56;100461.22;;;8.50;35.04
62942;BME280;49042;47.318;19.874;2023-04-04T07:20:58;100462.09;;;10.20;33.54
62942;BME280;49042;47.318;19.874;2023-04-04T07:24:00;100463.22;;;9.50;33.75
62942;BME280;49042;47.318;19.874;2023-04-04T07:27:02;100459.00;;;8.38;35.60
62942;BME280;49042;47.318;19.874;2023-04-04T07:30:04;100467.44;;;8.75;35.23
62942;BME280;49042;47.318;19.874;2023-04-04T07:33:07;100463.41;;;9.31;33.91
62942;BME280;49042;47.318;19.874;2023-04-04T07:36:08;100470.66;;;8.70;33.39
62942;BME280;49042;47.318;19.874;2023-04-04T07:39:10;100472.41;;;8.05;35.65
62942;BME280;49042;47.318;19.874;2023-04-04T07:42:12;100470.81;;;8.30;36.18
62942;BME280;49042;47.318;19.874;2023-04-04T07:45:14;100484.56;;;9.16;34.36
62942;BME280;49042;47.318;19.874;2023-04-04T07:48:15;100480.94;;;9.60;32.44
62942;BME280;49042;47.318;19.874;2023-04-04T07:51:17;100473.03;;;12.22;29.90
62942;BME280;49042;47.318;19.874;2023-04-04T07:54:21;100496.59;;;11.89;29.77
62942;BME280;49042;47.318;19.874;2023-04-04T07:57:24;100484.16;;;10.58;31.51
62942;BME280;49042;47.318;19.874;2023-04-04T08:00:26;100488.72;;;10.37;32.54
62942;BME280;49042;47.318;19.874;2023-04-04T08:03:28;100490.25;;;10.32;31.76
62942;BME280;49042;47.318;19.874;2023-04-04T08:06:30;100497.66;;;9.19;33.48
62942;BME280;49042;47.318;19.874;2023-04-04T08:09:33;100496.47;;;8.86;34.48
62942;BME280;49042;47.318;19.874;2023-04-04T08:12:37;100491.22;;;8.63;34.59
62942;BME280;49042;47.318;19.874;2023-04-04T08:15:39;100489.31;;;8.38;34.96
62942;BME280;49042;47.318;19.874;2023-04-04T08:18:42;100482.22;;;8.33;34.60
62942;BME280;49042;47.318;19.874;2023-04-04T08:21:43;100480.78;;;8.19;35.04
62942;BME280;49042;47.318;19.874;2023-04-04T08:24:45;100478.16;;;7.56;37.01
62942;BME280;49042;47.318;19.874;2023-04-04T08:27:47;100468.47;;;6.75;37.37
62942;BME280;49042;47.318;19.874;2023-04-04T08:30:51;100483.03;;;7.10;37.26
62942;BME280;49042;47.318;19.874;2023-04-04T08:33:54;100472.81;;;6.74;37.75
62942;BME280;49042;47.318;19.874;2023-04-04T08:36:56;100476.19;;;6.55;37.78
62942;BME280;49042;47.318;19.874;2023-04-04T08:39:58;100466.81;;;8.38;35.52
62942;BME280;49042;47.318;19.874;2023-04-04T08:43:03;100466.66;;;10.00;33.86
62942;BME280;49042;47.318;19.874;2023-04-04T08:46:07;100462.62;;;10.10;32.59
62942;BME280;49042;47.318;19.874;2023-04-04T08:49:13;100468.13;;;7.85;35.47
62942;BME280;49042;47.318;19.874;2023-04-04T08:52:17;100465.38;;;8.02;36.82
62942;BME280;49042;47.318;19.874;2023-04-04T08:55:20;100465.09;;;8.60;35.22
62942;BME280;49042;47.318;19.874;2023-04-04T08:58:23;100445.62;;;9.19;33.93
62942;BME280;49042;47.318;19.874;2023-04-04T09:01:25;100438.38;;;9.60;32.93
62942;BME280;49042;47.318;19.874;2023-04-04T09:04:30;100438.09;;;9.52;32.20
62942;BME280;49042;47.318;19.874;2023-04-04T09:07:32;100436.06;;;8.06;35.71
62942;BME280;49042;47.318;19.874;2023-04-04T09:10:37;100432.81;;;9.01;34.38
62942;BME280;49042;47.318;19.874;2023-04-04T09:13:44;100439.50;;;9.42;34.30
62942;BME280;49042;47.318;19.874;2023-04-04T09:16:46;100430.72;;;8.46;34.01
62942;BME280;49042;47.318;19.874;2023-04-04T09:19:48;100432.88;;;9.52;33.66
62942;BME280;49042;47.318;19.874;2023-04-04T09:22:49;100430.03;;;9.96;32.49
62942;BME280;49042;47.318;19.874;2023-04-04T09:25:53;100432.50;;;10.75;32.07
62942;BME280;49042;47.318;19.874;2023-04-04T09:28:57;100436.63;;;10.67;31.00
62942;BME280;49042;47.318;19.874;2023-04-04T09:31:59;100444.37;;;12.65;29.94
62942;BME280;49042;47.318;19.874;2023-04-04T09:35:01;100444.69;;;11.37;30.12
62942;BME280;49042;47.318;19.874;2023-04-04T09:38:04;100441.53;;;11.49;30.29
62942;BME280;49042;47.318;19.874;2023-04-04T09:41:07;100433.87;;;11.89;29.60
62942;BME280;49042;47.318;19.874;2023-04-04T09:44:10;100439.50;;;11.38;29.75
62942;BME280;49042;47.318;19.874;2023-04-04T09:47:24;100432.22;;;11.93;29.07
62942;BME280;49042;47.318;19.874;2023-04-04T09:50:29;100443.56;;;11.27;33.86
62942;BME280;49042;47.318;19.874;2023-04-04T09:53:35;100436.66;;;12.31;36.81
62942;BME280;49042;47.318;19.874;2023-04-04T09:56:37;100430.72;;;12.03;30.72
62942;BME280;49042;47.318;19.874;2023-04-04T09:59:39;100436.63;;;10.67;30.18
62942;BME280;49042;47.318;19.874;2023-04-04T10:02:46;100432.69;;;10.24;31.92
62942;BME280;49042;47.318;19.874;2023-04-04T10:06:07;100419.16;;;9.07;32.24
62942;BME280;49042;47.318;19.874;2023-04-04T10:09:10;100417.59;;;10.43;35.69
62942;BME280;49042;47.318;19.874;2023-04-04T10:12:12;100424.38;;;9.07;33.09
62942;BME280;49042;47.318;19.874;2023-04-04T10:15:15;100422.56;;;8.81;33.39
62942;BME280;49042;47.318;19.874;2023-04-04T10:18:19;100419.16;;;9.31;34.24
62942;BME280;49042;47.318;19.874;2023-04-04T10:21:22;100434.84;;;9.84;34.20
62942;BME280;49042;47.318;19.874;2023-04-04T10:24:24;100434.44;;;10.81;34.18
62942;BME280;49042;47.318;19.874;2023-04-04T10:27:26;100445.56;;;11.05;30.53
62942;BME280;49042;47.318;19.874;2023-04-04T10:30:28;100436.41;;;11.19;30.16
62942;BME280;49042;47.318;19.874;2023-04-04T10:33:39;100438.84;;;10.54;30.82
62942;BME280;49042;47.318;19.874;2023-04-04T10:36:53;100433.59;;;10.26;31.60
62942;BME280;49042;47.318;19.874;2023-04-04T10:40:08;100437.66;;;9.90;31.05
62942;BME280;49042;47.318;19.874;2023-04-04T10:43:11;100430.22;;;10.29;31.22
62942;BME280;49042;47.318;19.874;2023-04-04T10:46:15;100444.78;;;9.70;32.21
62942;BME280;49042;47.318;19.874;2023-04-04T10:49:20;100442.03;;;10.17;31.07
62942;BME280;49042;47.318;19.874;2023-04-04T10:52:23;100432.16;;;10.35;30.27
62942;BME280;49042;47.318;19.874;2023-04-04T10:55:28;100449.44;;;10.59;30.50
62942;BME280;49042;47.318;19.874;2023-04-04T10:58:30;100434.19;;;10.73;30.23
62942;BME280;49042;47.318;19.874;2023-04-04T11:04:49;100441.53;;;10.57;29.73
62942;BME280;49042;47.318;19.874;2023-04-04T11:08:02;100435.38;;;10.00;30.43
62942;BME280;49042;47.318;19.874;2023-04-04T11:11:09;100425.59;;;9.94;31.25
62942;BME280;49042;47.318;19.874;2023-04-04T11:14:28;100418.44;;;9.60;31.47
62942;BME280;49042;47.318;19.874;2023-04-04T11:17:50;100416.69;;;9.35;31.38
62942;BME280;49042;47.318;19.874;2023-04-04T11:20:53;100423.22;;;9.74;31.55
62942;BME280;49042;47.318;19.874;2023-04-04T11:26:59;100419.06;;;9.28;33.06
62942;BME280;49042;47.318;19.874;2023-04-04T11:30:11;100428.09;;;9.38;33.25
62942;BME280;49042;47.318;19.874;2023-04-04T11:33:24;100420.28;;;9.89;30.20
62942;BME280;49042;47.318;19.874;2023-04-04T11:39:46;100418.66;;;8.70;33.20
62942;BME280;49042;47.318;19.874;2023-04-04T11:42:51;100415.94;;;8.45;33.80
62942;BME280;49042;47.318;19.874;2023-04-04T11:46:04;100418.53;;;8.66;33.45
62942;BME280;49042;47.318;19.874;2023-04-04T11:49:08;100408.25;;;8.25;33.93
62942;BME280;49042;47.318;19.874;2023-04-04T11:52:12;100400.63;;;8.97;33.36
62942;BME280;49042;47.318;19.874;2023-04-04T11:55:16;100395.12;;;8.89;34.74
62942;BME280;49042;47.318;19.874;2023-04-04T11:58:20;100402.91;;;7.77;36.75
62942;BME280;49042;47.318;19.874;2023-04-04T12:01:22;100404.41;;;7.72;35.79
62942;BME280;49042;47.318;19.874;2023-04-04T12:04:24;100405.34;;;7.96;35.09
62942;BME280;49042;47.318;19.874;2023-04-04T12:07:28;100388.19;;;7.99;36.27
62942;BME280;49042;47.318;19.874;2023-04-04T12:10:33;100388.75;;;7.49;36.83
62942;BME280;49042;47.318;19.874;2023-04-04T12:13:41;100394.75;;;7.28;37.76
62942;BME280;49042;47.318;19.874;2023-04-04T12:16:46;100392.84;;;7.44;37.28
62942;BME280;49042;47.318;19.874;2023-04-04T12:19:48;100397.59;;;7.54;35.49
62942;BME280;49042;47.318;19.874;2023-04-04T12:22:50;100389.59;;;8.12;36.65
62942;BME280;49042;47.318;19.874;2023-04-04T12:25:54;100397.16;;;8.29;35.09
62942;BME280;49042;47.318;19.874;2023-04-04T12:28:57;100398.94;;;7.24;37.34
62942;BME280;49042;47.318;19.874;2023-04-04T12:31:59;100392.25;;;7.92;36.67
62942;BME280;49042;47.318;19.874;2023-04-04T12:35:01;100385.47;;;7.33;36.39
62942;BME280;49042;47.318;19.874;2023-04-04T12:38:04;100392.94;;;7.05;37.96
62942;BME280;49042;47.318;19.874;2023-04-04T12:41:16;100403.75;;;6.77;38.70
62942;BME280;49042;47.318;19.874;2023-04-04T12:44:34;100395.44;;;7.04;38.95
62942;BME280;49042;47.318;19.874;2023-04-04T12:47:36;100391.50;;;6.92;37.03
62942;BME280;49042;47.318;19.874;2023-04-04T12:50:57;100388.50;;;7.03;36.70
62942;BME280;49042;47.318;19.874;2023-04-04T12:53:59;100392.75;;;7.21;36.34
62942;BME280;49042;47.318;19.874;2023-04-04T12:57:02;100387.94;;;7.30;37.14
62942;BME280;49042;47.318;19.874;2023-04-04T13:00:05;100392.59;;;6.98;36.01
62942;BME280;49042;47.318;19.874;2023-04-04T13:03:11;100376.94;;;7.36;36.92
62942;BME280;49042;47.318;19.874;2023-04-04T13:06:16;100386.47;;;6.95;38.82
62942;BME280;49042;47.318;19.874;2023-04-04T13:09:21;100392.84;;;7.04;37.52
62942;BME280;49042;47.318;19.874;2023-04-04T13:12:23;100393.81;;;7.06;39.13
62942;BME280;49042;47.318;19.874;2023-04-04T13:15:53;100386.94;;;7.06;37.09
62942;BME280;49042;47.318;19.874;2023-04-04T13:18:55;100392.59;;;6.98;37.53
62942;BME280;49042;47.318;19.874;2023-04-04T13:21:57;100377.78;;;7.99;36.07
62942;BME280;49042;47.318;19.874;2023-04-04T13:25:00;100376.03;;;7.77;35.49
62942;BME280;49042;47.318;19.874;2023-04-04T13:28:02;100378.06;;;7.84;35.59
62942;BME280;49042;47.318;19.874;2023-04-04T13:31:06;100379.25;;;8.14;35.60
62942;BME280;49042;47.318;19.874;2023-04-04T13:34:08;100369.00;;;7.74;37.27
62942;BME280;49042;47.318;19.874;2023-04-04T13:37:10;100380.31;;;7.13;37.02
62942;BME280;49042;47.318;19.874;2023-04-04T13:40:12;100374.28;;;7.34;38.23
62942;BME280;49042;47.318;19.874;2023-04-04T13:43:14;100378.47;;;6.91;38.28
62942;BME280;49042;47.318;19.874;2023-04-04T13:46:15;100386.25;;;7.31;38.97
62942;BME280;49042;47.318;19.874;2023-04-04T13:49:17;100375.06;;;7.53;38.17
62942;BME280;49042;47.318;19.874;2023-04-04T13:52:19;100389.72;;;7.31;36.25
62942;BME280;49042;47.318;19.874;2023-04-04T13:55:21;100382.63;;;6.87;38.29
62942;BME280;49042;47.318;19.874;2023-04-04T13:58:22;100382.47;;;6.64;37.25
62942;BME280;49042;47.318;19.874;2023-04-04T14:01:24;100380.56;;;7.00;36.95
62942;BME280;49042;47.318;19.874;2023-04-04T14:04:26;100385.84;;;6.81;37.27
62942;BME280;49042;47.318;19.874;2023-04-04T14:07:28;100371.22;;;6.45;37.75
62942;BME280;49042;47.318;19.874;2023-04-04T14:10:30;100382.87;;;6.73;39.06
62942;BME280;49042;47.318;19.874;2023-04-04T14:13:31;100395.81;;;6.53;38.41
62942;BME280;49042;47.318;19.874;2023-04-04T14:16:33;100384.78;;;6.39;38.53
62942;BME280;49042;47.318;19.874;2023-04-04T14:19:37;100387.81;;;6.87;38.64
62942;BME280;49042;47.318;19.874;2023-04-04T14:22:38;100385.78;;;7.20;37.91
62942;BME280;49042;47.318;19.874;2023-04-04T14:25:40;100390.16;;;6.82;37.78
62942;BME280;49042;47.318;19.874;2023-04-04T14:28:43;100399.50;;;6.79;38.98
62942;BME280;49042;47.318;19.874;2023-04-04T14:31:45;100393.00;;;6.49;38.53
62942;BME280;49042;47.318;19.874;2023-04-04T14:34:46;100397.78;;;6.59;40.18
62942;BME280;49042;47.318;19.874;2023-04-04T14:37:48;100399.97;;;6.88;38.86
62942;BME280;49042;47.318;19.874;2023-04-04T14:40:50;100404.91;;;6.45;39.51
62942;BME280;49042;47.318;19.874;2023-04-04T14:43:52;100407.38;;;6.24;40.32
62942;BME280;49042;47.318;19.874;2023-04-04T14:46:54;100405.72;;;6.44;40.03
62942;BME280;49042;47.318;19.874;2023-04-04T14:49:56;100410.50;;;6.73;39.32
62942;BME280;49042;47.318;19.874;2023-04-04T14:52:58;100404.91;;;6.63;39.72
62942;BME280;49042;47.318;19.874;2023-04-04T14:56:00;100410.06;;;7.02;38.76
62942;BME280;49042;47.318;19.874;2023-04-04T14:59:01;100417.50;;;6.56;38.63
62942;BME280;49042;47.318;19.874;2023-04-04T15:02:06;100413.72;;;6.30;39.56
62942;BME280;49042;47.318;19.874;2023-04-04T15:05:07;100412.31;;;6.37;38.68
62942;BME280;49042;47.318;19.874;2023-04-04T15:08:10;100422.03;;;6.41;39.49
62942;BME280;49042;47.318;19.874;2023-04-04T15:11:11;100422.91;;;6.99;37.34
62942;BME280;49042;47.318;19.874;2023-04-04T15:14:14;100426.25;;;7.16;37.66
62942;BME280;49042;47.318;19.874;2023-04-04T15:17:16;100420.66;;;9.25;37.14
62942;BME280;49042;47.318;19.874;2023-04-04T15:20:17;100423.22;;;7.66;35.69
62942;BME280;49042;47.318;19.874;2023-04-04T15:23:19;100441.03;;;7.58;36.66
62942;BME280;49042;47.318;19.874;2023-04-04T15:26:21;100440.06;;;6.58;38.14
62942;BME280;49042;47.318;19.874;2023-04-04T15:29:23;100448.50;;;6.17;40.37
62942;BME280;49042;47.318;19.874;2023-04-04T15:32:25;100440.75;;;6.36;37.75
62942;BME280;49042;47.318;19.874;2023-04-04T15:35:26;100442.81;;;6.08;38.05
62942;BME280;49042;47.318;19.874;2023-04-04T15:38:28;100440.00;;;5.85;39.12
62942;BME280;49042;47.318;19.874;2023-04-04T15:41:30;100453.31;;;5.93;39.77
62942;BME280;49042;47.318;19.874;2023-04-04T15:44:31;100446.81;;;6.01;38.53
62942;BME280;49042;47.318;19.874;2023-04-04T15:47:33;100455.06;;;5.59;39.99
62942;BME280;49042;47.318;19.874;2023-04-04T15:50:35;100453.16;;;5.54;39.70
62942;BME280;49042;47.318;19.874;2023-04-04T15:53:37;100455.66;;;5.19;40.01
62942;BME280;49042;47.318;19.874;2023-04-04T15:56:38;100468.66;;;5.38;40.46
62942;BME280;49042;47.318;19.874;2023-04-04T15:59:40;100469.53;;;5.55;39.53
62942;BME280;49042;47.318;19.874;2023-04-04T16:02:41;100477.31;;;5.21;39.40
62942;BME280;49042;47.318;19.874;2023-04-04T16:05:44;100475.62;;;5.39;39.82
62942;BME280;49042;47.318;19.874;2023-04-04T16:08:45;100477.63;;;5.28;40.68
62942;BME280;49042;47.318;19.874;2023-04-04T16:11:47;100481.53;;;5.19;40.55